| time (UTC) | temp F | wind direction | speed MPH | gust MPH | rain 1hr in | rain 24hr in | rain mn in | humidity % | barometer mb |
| 20260502163053 | 62 | 0 | 0.0 | 3.0 | 0.00 | 0.00 | 0.00 | 34 | 1020.5 |
| 20260502161555 | 60 | 0 | 0.0 | 3.0 | 0.00 | 0.00 | 0.00 | 36 | 1020.5 |
| 20260502151606 | 54 | 0 | 0.0 | 1.0 | 0.00 | 0.00 | 0.00 | 41 | 1021.0 |
| 20260502150103 | 52 | 0 | 0.0 | 2.0 | 0.00 | 0.00 | 0.00 | 45 | 1020.9 |
| 20260502123102 | 41 | 0 | 0.0 | 2.0 | 0.00 | 0.00 | 0.00 | 60 | 1021.3 |
| 20260502121552 | 40 | 0 | 0.0 | 0.0 | 0.00 | 0.00 | 0.00 | 60 | 1021.3 |
| 20260502114556 | 40 | 0 | 0.0 | 0.0 | 0.00 | 0.00 | 0.00 | 62 | 1021.3 |
| 20260502113059 | 40 | 0 | 0.0 | 0.0 | 0.00 | 0.00 | 0.00 | 61 | 1021.2 |
| 20260502111555 | 40 | 0 | 0.0 | 0.0 | 0.00 | 0.00 | 0.00 | 61 | 1021.3 |
| 20260502110052 | 40 | 0 | 0.0 | 0.0 | 0.00 | 0.00 | 0.00 | 60 | 1021.3 |
| 20260502104550 | 41 | 0 | 0.0 | 0.0 | 0.00 | 0.00 | 0.00 | 60 | 1021.1 |
| 20260502103105 | 41 | 0 | 0.0 | 0.0 | 0.00 | 0.00 | 0.00 | 58 | 1021.1 |
| 20260502101611 | 42 | 0 | 0.0 | 0.0 | 0.00 | 0.00 | 0.00 | 57 | 1021.1 |
| 20260502100125 | 42 | 0 | 0.0 | 0.0 | 0.00 | 0.00 | 0.00 | 55 | 1021.1 |
| 20260502090112 | 45 | 0 | 0.0 | 0.0 | 0.00 | 0.00 | 0.00 | 50 | 1020.9 |
| 20260502070054 | 47 | 0 | 0.0 | 0.0 | 0.00 | 0.00 | 0.00 | 44 | 1020.8 |
| 20260502064600 | 46 | 0 | 0.0 | 0.0 | 0.00 | 0.00 | 0.00 | 45 | 1020.7 |
| 20260502063054 | 46 | 0 | 0.0 | 0.0 | 0.00 | 0.00 | 0.00 | 45 | 1020.6 |
| 20260502061611 | 47 | 0 | 0.0 | 0.0 | 0.00 | 0.00 | 0.00 | 44 | 1020.5 |
| 20260502060053 | 47 | 0 | 0.0 | 0.0 | 0.00 | 0.00 | 0.00 | 43 | 1020.6 |
| 20260502054553 | 48 | 0 | 0.0 | 0.0 | 0.00 | 0.00 | 0.00 | 43 | 1020.5 |
| 20260502053103 | 48 | 0 | 0.0 | 0.0 | 0.00 | 0.00 | 0.00 | 42 | 1020.5 |
| 20260502051553 | 49 | 0 | 0.0 | 0.0 | 0.00 | 0.00 | 0.00 | 41 | 1020.5 |
| 20260502050053 | 50 | 0 | 0.0 | 0.0 | 0.00 | 0.00 | 0.00 | 40 | 1020.5 |
| 20260502044549 | 50 | 0 | 0.0 | 0.0 | 0.00 | 0.00 | 0.00 | 39 | 1020.7 |
| 20260502043059 | 51 | 0 | 0.0 | 0.0 | 0.00 | 0.00 | 0.00 | 38 | 1020.5 |
| 20260502041555 | 52 | 0 | 0.0 | 0.0 | 0.00 | 0.00 | 0.00 | 37 | 1020.7 |
| 20260502040058 | 53 | 0 | 0.0 | 0.0 | 0.00 | 0.00 | 0.00 | 36 | 1020.5 |
| 20260502034550 | 54 | 0 | 0.0 | 0.0 | 0.00 | 0.00 | 0.00 | 33 | 1020.3 |
| 20260502033052 | 55 | 0 | 0.0 | 0.0 | 0.00 | 0.00 | 0.00 | 30 | 1020.3 |
| 20260502031600 | 56 | 0 | 0.0 | 0.0 | 0.00 | 0.00 | 0.00 | 28 | 1020.0 |
| 20260502030107 | 57 | 0 | 0.0 | 0.0 | 0.00 | 0.00 | 0.00 | 28 | 1019.9 |
| 20260502024601 | 57 | 0 | 0.0 | 0.0 | 0.00 | 0.00 | 0.00 | 27 | 1019.7 |
| 20260502023056 | 59 | 0 | 0.0 | 0.0 | 0.00 | 0.00 | 0.00 | 25 | 1019.6 |
| 20260502021552 | 62 | 0 | 0.0 | 0.0 | 0.00 | 0.00 | 0.00 | 23 | 1019.6 |
| 20260502020051 | 65 | 0 | 0.0 | 0.0 | 0.00 | 0.00 | 0.00 | 17 | 1019.5 |
| 20260502014547 | 66 | 0 | 0.0 | 0.0 | 0.00 | 0.00 | 0.00 | 16 | 1019.4 |
| 20260502013049 | 68 | 0 | 0.0 | 0.0 | 0.00 | 0.00 | 0.00 | 16 | 1019.5 |
| 20260502011550 | 69 | 0 | 0.0 | 0.0 | 0.00 | 0.00 | 0.00 | 16 | 1019.5 |
| 20260502010048 | 68 | 0 | 0.0 | 1.0 | 0.00 | 0.00 | 0.00 | 16 | 1019.4 |
| 20260502004558 | 69 | 0 | 0.0 | 1.0 | 0.00 | 0.00 | 0.00 | 17 | 1019.4 |
| 20260502003049 | 69 | 0 | 0.0 | 1.0 | 0.00 | 0.00 | 0.00 | 16 | 1019.5 |
| 20260502001554 | 70 | 0 | 0.0 | 3.0 | 0.00 | 0.00 | 0.00 | 16 | 1019.5 |
| 20260502000053 | 71 | 0 | 0.0 | 0.0 | 0.00 | 0.00 | 0.00 | 17 | 1019.5 |
| 20260501234551 | 70 | 0 | 0.0 | 3.0 | 0.00 | 0.00 | 0.00 | 16 | 1019.5 |
| 20260501233054 | 70 | 0 | 0.0 | 2.0 | 0.00 | 0.00 | 0.00 | 17 | 1019.5 |
| 20260501231553 | 71 | 0 | 0.0 | 6.0 | 0.00 | 0.00 | 0.00 | 17 | 1019.5 |
| 20260501230059 | 71 | 0 | 0.0 | 4.0 | 0.00 | 0.00 | 0.00 | 18 | 1019.8 |
| 20260501224553 | 72 | 0 | 0.0 | 2.0 | 0.00 | 0.00 | 0.00 | 19 | 1019.7 |
| 20260501223059 | 70 | 0 | 0.0 | 2.0 | 0.00 | 0.00 | 0.00 | 20 | 1019.8 |
| 20260501221550 | 71 | 0 | 0.0 | 3.0 | 0.00 | 0.00 | 0.00 | 19 | 1020.0 |
| 20260501220056 | 72 | 0 | 0.0 | 2.0 | 0.00 | 0.00 | 0.00 | 19 | 1020.2 |
| 20260501214556 | 73 | 0 | 0.0 | 1.0 | 0.00 | 0.00 | 0.00 | 19 | 1020.3 |
| 20260501213058 | 71 | 0 | 0.0 | 0.0 | 0.00 | 0.00 | 0.00 | 21 | 1020.5 |
| 20260501211604 | 71 | 0 | 0.0 | 1.0 | 0.00 | 0.00 | 0.00 | 21 | 1020.7 |
| 20260501210057 | 70 | 0 | 0.0 | 0.0 | 0.00 | 0.00 | 0.00 | 21 | 1020.8 |
| 20260501204619 | 71 | 0 | 0.0 | 0.0 | 0.00 | 0.00 | 0.00 | 22 | 1020.8 |
| 20260501203052 | 71 | 0 | 0.0 | 1.0 | 0.00 | 0.00 | 0.00 | 22 | 1021.0 |
| 20260501201553 | 69 | 0 | 0.0 | 2.0 | 0.00 | 0.00 | 0.00 | 23 | 1021.1 |
| 20260501200052 | 68 | 0 | 0.0 | 0.0 | 0.00 | 0.00 | 0.00 | 23 | 1021.1 |
| 20260501194602 | 71 | 360 | 0.0 | 2.0 | 0.00 | 0.00 | 0.00 | 23 | 1021.4 |
| 20260501193055 | 69 | 0 | 0.0 | 0.0 | 0.00 | 0.00 | 0.00 | 24 | 1021.6 |
| 20260501191556 | 69 | 0 | 0.0 | 2.0 | 0.00 | 0.00 | 0.00 | 24 | 1021.7 |
| 20260501190052 | 67 | 0 | 0.0 | 2.0 | 0.00 | 0.00 | 0.00 | 25 | 1021.9 |
| 20260501184553 | 68 | 0 | 0.0 | 2.0 | 0.00 | 0.00 | 0.00 | 25 | 1022.0 |
| 20260501183056 | 67 | 0 | 0.0 | 2.0 | 0.00 | 0.00 | 0.00 | 25 | 1022.2 |
| 20260501181556 | 68 | 0 | 0.0 | 0.0 | 0.00 | 0.00 | 0.00 | 23 | 1022.2 |
| 20260501180104 | 67 | 0 | 0.0 | 1.0 | 0.00 | 0.00 | 0.00 | 26 | 1022.4 |
| 20260501174557 | 66 | 0 | 0.0 | 0.0 | 0.00 | 0.00 | 0.00 | 27 | 1022.4 |
| 20260501173055 | 65 | 0 | 0.0 | 0.0 | 0.00 | 0.00 | 0.00 | 28 | 1022.4 |